createdAt,value
2022-08-22T00:01:48.352Z,36.90
2022-08-22T00:02:44.824Z,29.90
2022-08-22T00:03:02.257Z,31.90
2022-08-22T00:04:36.267Z,37.20
2022-08-22T00:07:58.409Z,37.10
2022-08-22T00:10:48.799Z,37.80
2022-08-22T00:13:24.037Z,36.90
2022-08-22T00:16:31.645Z,36.90
2022-08-22T00:19:24.033Z,37.90
2022-08-22T00:22:20.639Z,37.10
2022-08-22T00:25:24.757Z,37.50
2022-08-22T00:28:10.005Z,37.70
2022-08-22T00:31:04.936Z,37.70
2022-08-22T00:34:09.676Z,37.80
2022-08-22T00:36:57.971Z,37.80
2022-08-22T00:39:33.928Z,37.80
2022-08-22T00:42:50.249Z,37.70
2022-08-22T00:45:59.704Z,38.10
2022-08-22T00:48:56.268Z,38.00
2022-08-22T00:51:56.375Z,38.00
2022-08-22T00:54:55.854Z,38.40
2022-08-22T00:57:49.073Z,38.60
2022-08-22T01:00:21.606Z,38.10
2022-08-22T01:03:12.885Z,38.30
2022-08-22T01:06:29.392Z,38.30
2022-08-22T01:09:44.352Z,38.70
2022-08-22T01:12:19.344Z,38.50
2022-08-22T01:14:57.660Z,38.20
2022-08-22T01:18:24.762Z,38.40
2022-08-22T01:21:37.228Z,38.80
2022-08-22T01:25:11.919Z,39.00
2022-08-22T01:27:45.002Z,38.70
2022-08-22T01:31:08.549Z,38.50
2022-08-22T01:33:59.463Z,39.00
2022-08-22T01:37:00.045Z,38.60
2022-08-22T01:39:48.136Z,38.90
2022-08-22T01:42:38.431Z,39.00
2022-08-22T01:45:14.300Z,39.30
2022-08-22T01:47:56.218Z,39.50
2022-08-22T01:50:39.593Z,39.50
2022-08-22T01:53:23.121Z,39.40
2022-08-22T01:56:16.466Z,39.50
2022-08-22T01:59:01.855Z,39.30
2022-08-22T02:01:49.876Z,39.60
2022-08-22T02:04:36.472Z,39.30
2022-08-22T02:07:53.382Z,39.60
2022-08-22T02:10:27.752Z,39.90
2022-08-22T02:13:25.020Z,39.40
2022-08-22T02:16:12.125Z,39.80
2022-08-22T02:19:04.092Z,39.70
2022-08-22T02:21:55.722Z,39.80
2022-08-22T02:24:22.480Z,40.00
2022-08-22T02:27:23.661Z,39.50
2022-08-22T02:30:25.579Z,40.10
2022-08-22T02:33:12.979Z,40.80
2022-08-22T02:36:00.089Z,40.00
2022-08-22T02:39:21.503Z,40.20
2022-08-22T02:42:06.512Z,40.30
2022-08-22T02:44:52.860Z,40.50
2022-08-22T02:47:38.167Z,40.40
2022-08-22T02:50:24.854Z,40.40
2022-08-22T02:53:01.483Z,40.30
2022-08-22T02:55:53.353Z,40.10
2022-08-22T02:58:41.969Z,40.70
2022-08-22T03:01:31.555Z,40.60
2022-08-22T03:04:32.120Z,40.70
2022-08-22T03:07:28.004Z,41.00
2022-08-22T03:10:18.334Z,40.40
2022-08-22T03:13:11.065Z,40.90
2022-08-22T03:15:52.595Z,40.90
2022-08-22T03:18:41.283Z,41.10
2022-08-22T03:22:00.894Z,40.60
2022-08-22T03:25:09.660Z,41.10
2022-08-22T03:27:50.537Z,41.40
2022-08-22T03:30:29.490Z,41.00
2022-08-22T03:33:12.644Z,41.00
2022-08-22T03:35:45.563Z,41.20
2022-08-22T03:38:27.279Z,41.40
2022-08-22T03:41:15.120Z,41.80
2022-08-22T03:44:21.990Z,41.90
2022-08-22T03:48:00.073Z,42.00
2022-08-22T03:51:13.829Z,41.90
2022-08-22T03:54:05.456Z,41.90
2022-08-22T03:57:09.472Z,41.90
2022-08-22T03:59:57.611Z,41.60
2022-08-22T04:02:43.275Z,42.30
2022-08-22T04:05:40.725Z,41.90
2022-08-22T04:08:26.310Z,42.00
2022-08-22T04:11:31.373Z,42.60
2022-08-22T04:14:47.543Z,42.20
2022-08-22T04:17:44.569Z,42.50
2022-08-22T04:21:07.622Z,42.60
2022-08-22T04:24:15.892Z,42.60
2022-08-22T04:26:52.963Z,42.70
2022-08-22T04:29:41.934Z,42.10
2022-08-22T04:32:17.526Z,42.40
2022-08-22T04:35:29.427Z,42.30
2022-08-22T04:38:09.275Z,42.90
2022-08-22T04:40:48.153Z,42.40
2022-08-22T04:43:45.085Z,42.70
2022-08-22T04:46:17.550Z,43.00
2022-08-22T04:49:07.612Z,42.50
2022-08-22T04:52:07.252Z,43.30
2022-08-22T04:54:46.173Z,42.80
2022-08-22T04:57:31.019Z,43.00
2022-08-22T05:00:03.609Z,43.10
2022-08-22T05:02:32.994Z,43.00
2022-08-22T05:05:38.498Z,42.90
2022-08-22T05:08:13.703Z,43.40
2022-08-22T05:10:47.941Z,43.20
2022-08-22T05:13:39.081Z,43.30
2022-08-22T05:16:18.944Z,43.80
2022-08-22T05:18:54.403Z,43.60
2022-08-22T05:21:31.328Z,43.70
2022-08-22T05:24:11.572Z,43.50
2022-08-22T05:26:49.841Z,43.70
2022-08-22T05:29:27.362Z,43.90
2022-08-22T05:32:05.661Z,43.80
2022-08-22T05:34:39.273Z,43.90
2022-08-22T05:37:14.190Z,43.90
2022-08-22T05:39:47.229Z,43.70
2022-08-22T05:42:27.129Z,43.80
2022-08-22T05:44:55.503Z,44.10
2022-08-22T05:47:41.496Z,43.80
2022-08-22T05:50:38.439Z,44.40
2022-08-22T05:53:29.196Z,44.50
2022-08-22T05:56:05.941Z,44.00
2022-08-22T05:58:38.670Z,43.90
2022-08-22T06:01:56.414Z,44.00
2022-08-22T06:04:58.567Z,44.60
2022-08-22T06:07:39.911Z,44.40
2022-08-22T06:10:25.742Z,44.00
2022-08-22T06:13:37.160Z,44.60
2022-08-22T06:16:48.585Z,44.40
2022-08-22T06:19:20.405Z,44.60
2022-08-22T06:21:54.307Z,44.20
2022-08-22T06:24:26.875Z,44.40
2022-08-22T06:27:06.224Z,44.40
2022-08-22T06:29:46.974Z,44.30
2022-08-22T06:32:32.619Z,44.30
2022-08-22T06:36:03.515Z,44.50
2022-08-22T06:38:53.709Z,44.70
2022-08-22T06:41:29.610Z,44.30
2022-08-22T06:43:59.048Z,44.50
2022-08-22T06:46:30.877Z,44.30
2022-08-22T06:49:04.822Z,44.30
2022-08-22T06:51:33.983Z,44.30
2022-08-22T06:54:10.090Z,44.30
2022-08-22T06:56:43.678Z,44.30
2022-08-22T06:59:23.098Z,44.30
2022-08-22T07:01:58.448Z,45.00
2022-08-22T07:04:30.468Z,44.30
2022-08-22T07:07:02.081Z,44.20
2022-08-22T07:09:36.995Z,44.20
2022-08-22T07:12:18.332Z,44.20
2022-08-22T07:14:55.467Z,44.30
2022-08-22T07:17:27.697Z,44.20
2022-08-22T07:20:05.850Z,44.10
2022-08-22T07:22:36.545Z,44.20
2022-08-22T07:25:14.692Z,44.00
2022-08-22T07:28:00.314Z,44.00
2022-08-22T07:30:59.962Z,43.90
2022-08-22T07:33:45.149Z,44.00
2022-08-22T07:36:34.378Z,43.80
2022-08-22T07:39:56.162Z,43.70
2022-08-22T07:42:46.144Z,43.70
2022-08-22T07:45:39.760Z,43.60
2022-08-22T07:49:05.919Z,43.70
2022-08-22T07:51:52.700Z,43.60
2022-08-22T07:54:34.960Z,43.70
2022-08-22T07:57:07.825Z,43.60
2022-08-22T07:59:54.287Z,43.40
2022-08-22T08:02:27.585Z,43.50
2022-08-22T08:05:02.956Z,43.40
2022-08-22T08:07:32.087Z,43.50
2022-08-22T08:10:19.263Z,43.40
2022-08-22T08:13:02.362Z,43.60
2022-08-22T08:15:34.869Z,43.50
2022-08-22T08:18:13.241Z,43.50
2022-08-22T08:20:42.721Z,43.40
2022-08-22T08:23:19.414Z,43.30
2022-08-22T08:26:07.937Z,43.30
2022-08-22T08:28:45.745Z,43.30
2022-08-22T08:31:37.957Z,44.00
2022-08-22T08:34:24.538Z,43.30
2022-08-22T08:37:01.934Z,43.40
2022-08-22T08:39:43.619Z,43.20
2022-08-22T08:42:59.433Z,43.40
2022-08-22T08:46:14.434Z,43.30
2022-08-22T08:49:25.407Z,43.40
2022-08-22T08:52:29.383Z,43.20
2022-08-22T08:55:37.222Z,43.20
2022-08-22T08:58:35.326Z,43.30
2022-08-22T09:01:37.707Z,43.30
2022-08-22T09:05:09.043Z,43.10
2022-08-22T09:07:59.014Z,43.10
2022-08-22T09:10:45.086Z,43.00
2022-08-22T09:13:47.388Z,42.90
2022-08-22T09:16:52.531Z,43.00
2022-08-22T09:19:44.039Z,42.80
2022-08-22T09:23:02.310Z,42.80
2022-08-22T09:25:40.524Z,42.60
2022-08-22T09:28:36.248Z,42.70
2022-08-22T09:31:44.908Z,42.50
2022-08-22T09:34:23.990Z,42.50
2022-08-22T09:37:09.018Z,42.40
2022-08-22T09:39:50.290Z,42.40
2022-08-22T09:42:47.657Z,42.30
2022-08-22T09:45:40.294Z,41.90
2022-08-22T09:48:48.565Z,41.30
2022-08-22T09:52:05.134Z,41.50
2022-08-22T09:54:53.903Z,41.10
2022-08-22T09:57:51.005Z,41.00
2022-08-22T10:00:45.088Z,40.80
2022-08-22T10:03:45.141Z,40.70
2022-08-22T10:06:26.895Z,40.60
2022-08-22T10:09:08.823Z,40.40
2022-08-22T10:11:42.392Z,40.30
2022-08-22T10:14:15.590Z,40.30
2022-08-22T10:17:22.163Z,40.30
2022-08-22T10:20:15.536Z,39.90
2022-08-22T10:23:22.443Z,39.60
2022-08-22T10:26:22.884Z,39.90
2022-08-22T10:29:05.596Z,39.40
2022-08-22T10:32:14.438Z,39.40
2022-08-22T10:34:49.918Z,39.20
2022-08-22T10:37:26.311Z,39.10
2022-08-22T10:40:16.047Z,39.10
2022-08-22T10:43:09.595Z,38.40
2022-08-22T10:45:45.229Z,38.40
2022-08-22T10:48:13.078Z,38.30
2022-08-22T10:50:52.661Z,38.10
2022-08-22T10:53:37.274Z,37.50
2022-08-22T10:56:14.441Z,37.10
2022-08-22T10:59:45.129Z,37.70
2022-08-22T11:02:42.326Z,37.10
2022-08-22T11:05:24.062Z,37.20
2022-08-22T11:08:34.701Z,36.70
2022-08-22T11:11:01.709Z,35.90
2022-08-22T11:13:42.358Z,36.40
2022-08-22T11:16:26.318Z,35.90
2022-08-22T11:19:16.031Z,35.10
2022-08-22T11:21:57.338Z,35.60
2022-08-22T11:25:35.667Z,35.00
2022-08-22T11:28:29.874Z,34.90
2022-08-22T11:31:09.257Z,34.60
2022-08-22T11:34:03.051Z,33.90
2022-08-22T11:37:23.940Z,33.80
2022-08-22T11:40:58.210Z,33.20
2022-08-22T11:44:03.699Z,33.70
2022-08-22T11:46:42.931Z,33.80
2022-08-22T11:49:55.661Z,32.90
2022-08-22T11:52:58.066Z,33.10
2022-08-22T11:55:37.108Z,32.70
2022-08-22T11:58:49.629Z,32.70
2022-08-22T12:01:25.888Z,32.20
2022-08-22T12:04:20.449Z,32.10
2022-08-22T12:07:02.188Z,31.50
2022-08-22T12:09:50.762Z,31.20
2022-08-22T12:13:07.478Z,30.80
2022-08-22T12:15:55.101Z,31.10
2022-08-22T12:19:00.736Z,31.20
2022-08-22T12:21:50.866Z,30.30
2022-08-22T12:25:04.514Z,31.30
2022-08-22T12:27:41.006Z,30.50
2022-08-22T12:30:40.865Z,30.10
2022-08-22T12:33:40.923Z,30.20
2022-08-22T12:37:01.744Z,29.90
2022-08-22T12:40:08.948Z,30.00
2022-08-22T12:42:48.893Z,30.00
2022-08-22T12:45:34.384Z,29.10
2022-08-22T12:48:47.689Z,29.40
2022-08-22T12:51:32.681Z,28.90
2022-08-22T12:54:45.925Z,29.10
2022-08-22T12:57:45.191Z,28.30
2022-08-22T13:00:35.152Z,28.10
2022-08-22T13:03:32.328Z,28.30
2022-08-22T13:06:24.763Z,28.30
2022-08-22T13:08:54.055Z,28.60
2022-08-22T13:11:23.861Z,28.70
2022-08-22T13:14:02.389Z,28.60
2022-08-22T13:16:55.051Z,28.40
2022-08-22T13:19:32.509Z,28.50
2022-08-22T13:22:22.353Z,28.20
2022-08-22T13:25:04.873Z,27.90
2022-08-22T13:27:51.589Z,27.70
2022-08-22T13:30:30.177Z,27.60
2022-08-22T13:33:49.892Z,27.70
2022-08-22T13:36:26.784Z,27.30
2022-08-22T13:39:27.640Z,27.10
2022-08-22T13:42:00.845Z,27.00
2022-08-22T13:44:48.015Z,27.00
2022-08-22T13:47:23.144Z,26.50
2022-08-22T13:50:17.293Z,26.60
2022-08-22T13:52:55.189Z,26.60
2022-08-22T13:55:52.060Z,26.30
2022-08-22T13:58:28.510Z,26.00
2022-08-22T14:01:15.911Z,26.10
2022-08-22T14:04:17.544Z,25.60
2022-08-22T14:07:47.008Z,25.60
2022-08-22T14:10:28.040Z,25.90
2022-08-22T14:12:57.828Z,25.20
2022-08-22T14:15:45.006Z,25.30
2022-08-22T14:18:30.276Z,24.60
2022-08-22T14:21:40.859Z,25.00
2022-08-22T14:24:27.200Z,25.10
2022-08-22T14:27:08.616Z,24.60
2022-08-22T14:29:58.593Z,24.80
2022-08-22T14:32:29.755Z,24.60
2022-08-22T14:35:33.632Z,24.30
2022-08-22T14:38:38.856Z,24.00
2022-08-22T14:41:56.403Z,23.70
2022-08-22T14:45:09.870Z,23.50
2022-08-22T14:47:55.173Z,23.90
2022-08-22T14:50:56.649Z,23.30
2022-08-22T14:53:34.693Z,23.60
2022-08-22T14:56:15.731Z,22.60
2022-08-22T14:58:53.932Z,23.40
2022-08-22T15:01:26.251Z,22.80
2022-08-22T15:04:18.831Z,23.10
2022-08-22T15:06:58.952Z,22.70
2022-08-22T15:09:53.081Z,22.40
2022-08-22T15:12:46.851Z,22.30
2022-08-22T15:15:53.300Z,22.60
2022-08-22T15:18:27.934Z,22.70
2022-08-22T15:21:11.470Z,22.40
2022-08-22T15:23:47.008Z,22.20
2022-08-22T15:26:51.201Z,22.50
2022-08-22T15:29:29.049Z,22.10
2022-08-22T15:32:02.369Z,22.90
2022-08-22T15:34:47.560Z,22.10
2022-08-22T15:37:19.426Z,21.90
2022-08-22T15:40:12.070Z,22.30
2022-08-22T15:42:54.029Z,22.00
2022-08-22T15:45:37.792Z,21.90
2022-08-22T15:48:31.071Z,21.90
2022-08-22T15:51:09.398Z,22.10
2022-08-22T15:53:45.311Z,22.10
2022-08-22T15:56:12.052Z,21.60
2022-08-22T15:58:48.559Z,21.70
2022-08-22T16:01:26.406Z,21.50
2022-08-22T16:04:14.693Z,21.20
2022-08-22T16:06:52.619Z,21.20
2022-08-22T16:09:44.551Z,21.40
2022-08-22T16:12:35.333Z,21.50
2022-08-22T16:15:26.255Z,21.50
2022-08-22T16:17:53.412Z,21.80
2022-08-22T16:20:20.416Z,22.00
2022-08-22T16:22:59.081Z,22.00
2022-08-22T16:25:44.644Z,21.80
2022-08-22T16:28:56.786Z,21.60
2022-08-22T16:31:42.883Z,21.80
2022-08-22T16:34:24.480Z,21.90
2022-08-22T16:37:23.199Z,21.80
2022-08-22T16:40:01.647Z,21.80
2022-08-22T16:42:40.572Z,22.00
2022-08-22T16:45:17.012Z,21.90
2022-08-22T16:47:58.675Z,22.10
2022-08-22T16:50:37.393Z,22.10
2022-08-22T16:53:33.200Z,22.30
2022-08-22T16:56:39.412Z,22.40
2022-08-22T16:59:56.439Z,22.40
2022-08-22T17:02:50.467Z,22.50
2022-08-22T17:05:37.750Z,22.80
2022-08-22T17:08:36.531Z,22.70
2022-08-22T17:11:10.048Z,22.80
2022-08-22T17:14:05.430Z,23.10
2022-08-22T17:16:54.242Z,23.70
2022-08-22T17:19:40.535Z,23.30
2022-08-22T17:22:29.234Z,23.30
2022-08-22T17:25:32.792Z,23.50
2022-08-22T17:28:39.513Z,23.70
2022-08-22T17:31:21.910Z,23.50
2022-08-22T17:34:34.762Z,23.80
2022-08-22T17:37:07.074Z,23.80
2022-08-22T17:40:11.742Z,23.80
2022-08-22T17:42:55.373Z,23.90
2022-08-22T17:45:59.344Z,23.90
2022-08-22T17:48:39.511Z,24.00
2022-08-22T17:51:28.970Z,24.00
2022-08-22T17:54:21.172Z,24.00
2022-08-22T17:57:25.224Z,24.20
2022-08-22T18:00:15.983Z,24.20
2022-08-22T18:02:48.286Z,24.20
2022-08-22T18:05:25.465Z,24.20
2022-08-22T18:07:56.253Z,24.50
2022-08-22T18:10:39.496Z,24.50
2022-08-22T18:13:11.312Z,24.70
2022-08-22T18:15:57.787Z,24.70
2022-08-22T18:18:48.632Z,25.00
2022-08-22T18:22:04.640Z,24.90
2022-08-22T18:24:52.426Z,24.70
2022-08-22T18:27:49.356Z,24.90
2022-08-22T18:31:04.435Z,24.80
2022-08-22T18:33:38.166Z,25.60
2022-08-22T18:36:27.242Z,24.90
2022-08-22T18:39:13.534Z,25.20
2022-08-22T18:41:50.593Z,25.00
2022-08-22T18:44:34.478Z,25.30
2022-08-22T18:47:39.972Z,25.40
2022-08-22T18:50:34.521Z,25.50
2022-08-22T18:53:02.343Z,25.60
2022-08-22T18:56:06.943Z,25.40
2022-08-22T18:59:01.947Z,25.60
2022-08-22T19:02:03.385Z,25.80
2022-08-22T19:04:55.742Z,25.80
2022-08-22T19:07:48.195Z,25.70
2022-08-22T19:10:38.460Z,25.80
2022-08-22T19:13:34.483Z,26.00
2022-08-22T19:16:38.204Z,26.00
2022-08-22T19:19:57.965Z,26.20
2022-08-22T19:22:34.417Z,26.30
2022-08-22T19:25:14.178Z,26.10
2022-08-22T19:28:06.386Z,26.10
2022-08-22T19:30:47.323Z,26.20
2022-08-22T19:33:34.573Z,26.40
2022-08-22T19:36:30.386Z,26.40
2022-08-22T19:39:43.970Z,26.60
2022-08-22T19:42:21.114Z,26.40
2022-08-22T19:44:53.455Z,26.60
2022-08-22T19:47:29.507Z,26.50
2022-08-22T19:50:10.113Z,26.40
2022-08-22T19:53:32.999Z,26.70
2022-08-22T19:56:12.680Z,26.60
2022-08-22T19:59:07.093Z,26.70
2022-08-22T20:02:13.534Z,26.80
2022-08-22T20:04:53.772Z,26.80
2022-08-22T20:08:05.357Z,26.60
2022-08-22T20:11:16.488Z,26.90
2022-08-22T20:13:48.089Z,26.80
2022-08-22T20:16:21.608Z,26.70
2022-08-22T20:19:09.354Z,26.80
2022-08-22T20:21:49.258Z,27.00
2022-08-22T20:24:40.207Z,27.10
2022-08-22T20:27:26.803Z,27.10
2022-08-22T20:30:02.650Z,27.00
2022-08-22T20:32:32.533Z,27.10
2022-08-22T20:35:03.441Z,27.00
2022-08-22T20:38:05.376Z,27.10
2022-08-22T20:40:56.458Z,27.10
2022-08-22T20:43:38.501Z,27.30
2022-08-22T20:46:53.187Z,27.10
2022-08-22T20:49:35.945Z,27.40
2022-08-22T20:52:32.782Z,27.40
2022-08-22T20:55:21.194Z,27.40
2022-08-22T20:57:57.872Z,27.40
2022-08-22T21:00:42.140Z,27.40
2022-08-22T21:03:16.752Z,27.40
2022-08-22T21:05:46.188Z,27.40
2022-08-22T21:08:27.186Z,27.50
2022-08-22T21:11:19.893Z,27.80
2022-08-22T21:13:47.423Z,27.70
2022-08-22T21:16:31.444Z,27.60
2022-08-22T21:19:04.732Z,27.80
2022-08-22T21:21:35.806Z,27.70
2022-08-22T21:24:09.363Z,27.70
2022-08-22T21:27:02.454Z,27.80
2022-08-22T21:29:43.327Z,28.00
2022-08-22T21:32:34.008Z,27.90
2022-08-22T21:35:04.288Z,28.20
2022-08-22T21:37:45.532Z,28.00
2022-08-22T21:40:21.505Z,28.30
2022-08-22T21:43:13.592Z,28.10
2022-08-22T21:45:44.424Z,28.40
2022-08-22T21:48:43.669Z,28.10
2022-08-22T21:51:42.037Z,28.30
2022-08-22T21:54:31.664Z,28.30
2022-08-22T21:57:33.619Z,28.50
2022-08-22T22:00:11.020Z,28.50
2022-08-22T22:02:41.696Z,28.40
2022-08-22T22:05:15.810Z,28.40
2022-08-22T22:07:46.256Z,28.50
2022-08-22T22:10:18.612Z,28.50
2022-08-22T22:12:48.823Z,28.60
2022-08-22T22:15:21.099Z,28.70
2022-08-22T22:17:48.901Z,28.70
2022-08-22T22:20:22.119Z,28.70
2022-08-22T22:22:52.636Z,28.80
2022-08-22T22:25:39.766Z,28.80
2022-08-22T22:28:36.903Z,28.90
2022-08-22T22:31:05.070Z,29.00
2022-08-22T22:33:41.043Z,29.00
2022-08-22T22:36:19.972Z,29.10
2022-08-22T22:38:48.767Z,29.30
2022-08-22T22:41:21.221Z,29.20
2022-08-22T22:43:50.082Z,29.20
2022-08-22T22:46:16.868Z,29.30
2022-08-22T22:48:43.959Z,29.40
2022-08-22T22:51:13.102Z,29.40
2022-08-22T22:53:43.898Z,29.50
2022-08-22T22:56:21.472Z,29.50
2022-08-22T22:58:50.397Z,29.60
2022-08-22T23:01:27.168Z,29.60
2022-08-22T23:04:05.875Z,29.70
2022-08-22T23:06:35.247Z,29.80
2022-08-22T23:09:04.307Z,29.80
2022-08-22T23:11:31.622Z,29.80
2022-08-22T23:13:58.423Z,29.80
2022-08-22T23:16:28.655Z,29.90
2022-08-22T23:18:56.717Z,30.00
2022-08-22T23:21:29.123Z,30.00
2022-08-22T23:24:02.105Z,30.20
2022-08-22T23:26:32.805Z,30.10
2022-08-22T23:29:00.269Z,30.20
2022-08-22T23:31:43.896Z,30.10
2022-08-22T23:34:22.731Z,30.60
2022-08-22T23:36:55.043Z,30.60
2022-08-22T23:39:37.344Z,30.40
2022-08-22T23:42:06.285Z,30.60
2022-08-22T23:44:36.058Z,31.30
2022-08-22T23:47:08.457Z,30.60
2022-08-22T23:49:37.818Z,30.70
2022-08-22T23:52:10.138Z,30.70
2022-08-22T23:54:37.389Z,30.90
2022-08-22T23:57:11.997Z,31.00
2022-08-22T23:59:47.981Z,31.20
